SBI5308 UNKL-UNNT
Flight info
| Callsign | SBI5308 |
|---|---|
| Flight time | 0h 56m |
| Altitude | 34000 |
| Route | APRUS B926 NATIR |
| Aircraft | A320/M-SDE3FGHIRWY/LB1 |
Departure
| Time | 2026-04-28 13:32 |
|---|---|
| Airport | Krasnoyarsk International Airport (UNKL) |
Arrival
| Time | 2026-04-28 14:28 |
|---|---|
| Airport | Novosibirsk Tolmachevo Airport (UNNT) |
| Time | Latitude | Longitude | Altitude | Speed | Heading |
|---|---|---|---|---|---|
| 2026-04-28 13:03 | 56.17928 | 92.48618 | 954 ft | 0 kts | 24° |
| 2026-04-28 13:21 | 56.17924 | 92.48615 | 957 ft | 3 kts | 23° |
| 2026-04-28 13:21 | 56.17905 | 92.48600 | 955 ft | 3 kts | 23° |
| 2026-04-28 13:22 | 56.17886 | 92.48586 | 954 ft | 3 kts | 23° |
| 2026-04-28 13:22 | 56.17867 | 92.48574 | 954 ft | 3 kts | 353° |
| 2026-04-28 13:22 | 56.17849 | 92.48587 | 953 ft | 0 kts | 288° |
| 2026-04-28 13:25 | 56.17853 | 92.48567 | 954 ft | 4 kts | 290° |
| 2026-04-28 13:25 | 56.17863 | 92.48511 | 954 ft | 5 kts | 281° |
| 2026-04-28 13:25 | 56.17824 | 92.48451 | 954 ft | 9 kts | 204° |
| 2026-04-28 13:25 | 56.17772 | 92.48414 | 955 ft | 8 kts | 200° |
| 2026-04-28 13:26 | 56.17730 | 92.48452 | 953 ft | 11 kts | 120° |
| 2026-04-28 13:26 | 56.17695 | 92.48595 | 954 ft | 12 kts | 113° |
| 2026-04-28 13:26 | 56.17663 | 92.48729 | 957 ft | 11 kts | 113° |
| 2026-04-28 13:26 | 56.17634 | 92.48850 | 956 ft | 10 kts | 113° |
| 2026-04-28 13:27 | 56.17615 | 92.48928 | 954 ft | 10 kts | 113° |
| 2026-04-28 13:27 | 56.17581 | 92.49076 | 954 ft | 10 kts | 111° |
| 2026-04-28 13:27 | 56.17565 | 92.49147 | 956 ft | 9 kts | 112° |
| 2026-04-28 13:27 | 56.17520 | 92.49336 | 953 ft | 12 kts | 113° |
| 2026-04-28 13:28 | 56.17498 | 92.49428 | 954 ft | 12 kts | 113° |
| 2026-04-28 13:28 | 56.17468 | 92.49554 | 954 ft | 10 kts | 113° |
| 2026-04-28 13:28 | 56.17440 | 92.49674 | 954 ft | 13 kts | 113° |
| 2026-04-28 13:28 | 56.17404 | 92.49824 | 955 ft | 13 kts | 113° |
| 2026-04-28 13:29 | 56.17363 | 92.49996 | 957 ft | 15 kts | 113° |
| 2026-04-28 13:29 | 56.17324 | 92.50159 | 954 ft | 13 kts | 112° |
| 2026-04-28 13:29 | 56.17290 | 92.50308 | 956 ft | 12 kts | 112° |
| 2026-04-28 13:29 | 56.17249 | 92.50421 | 954 ft | 10 kts | 165° |
| 2026-04-28 13:30 | 56.17190 | 92.50388 | 956 ft | 8 kts | 204° |
| 2026-04-28 13:30 | 56.17166 | 92.50368 | 954 ft | 4 kts | 204° |
| 2026-04-28 13:30 | 56.17135 | 92.50345 | 952 ft | 6 kts | 201° |
| 2026-04-28 13:30 | 56.17066 | 92.50330 | 951 ft | 11 kts | 234° |
| 2026-04-28 13:31 | 56.17224 | 92.49620 | 954 ft | 86 kts | 293° |
| 2026-04-28 13:31 | 56.17543 | 92.48288 | 960 ft | 143 kts | 293° |
| 2026-04-28 13:31 | 56.17972 | 92.46529 | 1423 ft | 157 kts | 294° |
| 2026-04-28 13:32 | 56.18543 | 92.44884 | 2259 ft | 153 kts | 301° |
| 2026-04-28 13:32 | 56.18998 | 92.43182 | 3014 ft | 150 kts | 293° |
| 2026-04-28 13:32 | 56.19369 | 92.41439 | 3716 ft | 148 kts | 292° |
| 2026-04-28 13:32 | 56.19732 | 92.39726 | 4335 ft | 151 kts | 293° |
| 2026-04-28 13:33 | 56.20138 | 92.37856 | 4689 ft | 172 kts | 293° |
| 2026-04-28 13:33 | 56.20611 | 92.35734 | 5009 ft | 194 kts | 293° |
| 2026-04-28 13:33 | 56.21153 | 92.33332 | 5374 ft | 220 kts | 294° |
| 2026-04-28 13:33 | 56.21703 | 92.30618 | 5837 ft | 244 kts | 282° |
| 2026-04-28 13:34 | 56.21568 | 92.27505 | 6612 ft | 258 kts | 258° |
| 2026-04-28 13:34 | 56.20959 | 92.24427 | 7531 ft | 265 kts | 251° |
| 2026-04-28 13:34 | 56.20196 | 92.21385 | 8448 ft | 269 kts | 249° |
| 2026-04-28 13:34 | 56.19401 | 92.18308 | 9366 ft | 274 kts | 249° |
| 2026-04-28 13:35 | 56.18616 | 92.15153 | 10268 ft | 279 kts | 250° |
| 2026-04-28 13:35 | 56.17841 | 92.11867 | 10788 ft | 297 kts | 251° |
| 2026-04-28 13:35 | 56.17039 | 92.08302 | 11207 ft | 315 kts | 251° |
| 2026-04-28 13:35 | 56.16229 | 92.04605 | 11944 ft | 322 kts | 252° |
| 2026-04-28 13:36 | 56.15412 | 92.00839 | 12762 ft | 326 kts | 252° |
| 2026-04-28 13:36 | 56.14584 | 91.97013 | 13565 ft | 331 kts | 252° |
| 2026-04-28 13:36 | 56.13760 | 91.93188 | 14343 ft | 335 kts | 252° |
| 2026-04-28 13:36 | 56.12917 | 91.89271 | 15028 ft | 339 kts | 252° |
| 2026-04-28 13:37 | 56.12063 | 91.85310 | 15714 ft | 343 kts | 252° |
| 2026-04-28 13:37 | 56.11195 | 91.81309 | 16392 ft | 347 kts | 253° |
| 2026-04-28 13:37 | 56.10310 | 91.77244 | 17080 ft | 351 kts | 253° |
| 2026-04-28 13:37 | 56.09417 | 91.73143 | 17752 ft | 356 kts | 253° |
| 2026-04-28 13:38 | 56.08507 | 91.68993 | 18402 ft | 360 kts | 253° |
| 2026-04-28 13:38 | 56.07585 | 91.64796 | 18998 ft | 364 kts | 253° |
| 2026-04-28 13:38 | 56.06655 | 91.60551 | 19567 ft | 368 kts | 254° |
| 2026-04-28 13:38 | 56.05714 | 91.56254 | 20150 ft | 372 kts | 254° |
| 2026-04-28 13:39 | 56.04768 | 91.51923 | 20722 ft | 376 kts | 254° |
| 2026-04-28 13:39 | 56.03805 | 91.47555 | 21292 ft | 380 kts | 254° |
| 2026-04-28 13:39 | 56.02825 | 91.43126 | 21829 ft | 384 kts | 253° |
| 2026-04-28 13:39 | 56.01835 | 91.38671 | 22368 ft | 387 kts | 253° |
| 2026-04-28 13:40 | 56.00829 | 91.34180 | 22916 ft | 391 kts | 253° |
| 2026-04-28 13:40 | 55.99814 | 91.29651 | 23453 ft | 394 kts | 253° |
| 2026-04-28 13:40 | 55.98795 | 91.25079 | 23965 ft | 397 kts | 255° |
| 2026-04-28 13:40 | 55.98039 | 91.20361 | 24389 ft | 394 kts | 264° |
| 2026-04-28 13:41 | 55.97490 | 91.15609 | 24829 ft | 397 kts | 263° |
| 2026-04-28 13:41 | 55.96916 | 91.10710 | 25220 ft | 400 kts | 264° |
| 2026-04-28 13:41 | 55.96351 | 91.05880 | 25596 ft | 404 kts | 264° |
| 2026-04-28 13:41 | 55.95770 | 91.00949 | 26001 ft | 407 kts | 264° |
| 2026-04-28 13:42 | 55.95182 | 90.95981 | 26425 ft | 410 kts | 264° |
| 2026-04-28 13:42 | 55.94589 | 90.90992 | 26848 ft | 412 kts | 263° |
| 2026-04-28 13:42 | 55.93990 | 90.85967 | 27271 ft | 415 kts | 263° |
| 2026-04-28 13:42 | 55.93386 | 90.80921 | 27684 ft | 417 kts | 263° |
| 2026-04-28 13:43 | 55.92776 | 90.75846 | 28086 ft | 420 kts | 263° |
| 2026-04-28 13:43 | 55.92162 | 90.70742 | 28487 ft | 422 kts | 262° |
| 2026-04-28 13:43 | 55.91539 | 90.65609 | 28900 ft | 425 kts | 262° |
| 2026-04-28 13:43 | 55.90911 | 90.60436 | 29289 ft | 428 kts | 262° |
| 2026-04-28 13:44 | 55.90278 | 90.55254 | 29646 ft | 430 kts | 263° |
| 2026-04-28 13:44 | 55.89639 | 90.50021 | 29968 ft | 434 kts | 263° |
| 2026-04-28 13:44 | 55.88991 | 90.44735 | 30325 ft | 437 kts | 263° |
| 2026-04-28 13:44 | 55.88336 | 90.39431 | 30636 ft | 440 kts | 262° |
| 2026-04-28 13:45 | 55.87671 | 90.34111 | 30938 ft | 442 kts | 262° |
| 2026-04-28 13:45 | 55.87003 | 90.28751 | 31225 ft | 444 kts | 262° |
| 2026-04-28 13:45 | 55.86332 | 90.23375 | 31524 ft | 445 kts | 262° |
| 2026-04-28 13:45 | 55.85655 | 90.17986 | 31816 ft | 447 kts | 262° |
| 2026-04-28 13:46 | 55.84974 | 90.12584 | 32152 ft | 447 kts | 261° |
| 2026-04-28 13:46 | 55.84286 | 90.07187 | 32570 ft | 446 kts | 261° |
| 2026-04-28 13:46 | 55.83600 | 90.01819 | 32985 ft | 444 kts | 261° |
| 2026-04-28 13:46 | 55.82916 | 89.96476 | 33353 ft | 444 kts | 261° |
| 2026-04-28 13:47 | 55.82228 | 89.91111 | 33697 ft | 444 kts | 261° |
| 2026-04-28 13:47 | 55.81541 | 89.85758 | 34079 ft | 444 kts | 261° |
| 2026-04-28 13:47 | 55.80855 | 89.80408 | 34323 ft | 444 kts | 261° |
| 2026-04-28 13:47 | 55.80174 | 89.75119 | 34361 ft | 434 kts | 261° |
| 2026-04-28 13:48 | 55.78842 | 89.64864 | 34368 ft | 426 kts | 261° |
| 2026-04-28 13:48 | 55.77496 | 89.54629 | 34362 ft | 424 kts | 261° |
| 2026-04-28 13:49 | 55.76159 | 89.44441 | 34364 ft | 423 kts | 260° |
| 2026-04-28 13:49 | 55.74809 | 89.34265 | 34363 ft | 423 kts | 260° |
| 2026-04-28 13:50 | 55.73454 | 89.24095 | 34369 ft | 423 kts | 260° |
| 2026-04-28 13:50 | 55.72088 | 89.13929 | 34368 ft | 423 kts | 260° |
| 2026-04-28 13:51 | 55.70707 | 89.03787 | 34369 ft | 423 kts | 260° |
| 2026-04-28 13:51 | 55.69318 | 88.93650 | 34369 ft | 423 kts | 260° |
| 2026-04-28 13:52 | 55.67935 | 88.83512 | 34343 ft | 423 kts | 261° |
| 2026-04-28 13:52 | 55.66560 | 88.73365 | 34356 ft | 424 kts | 260° |
| 2026-04-28 13:53 | 55.65162 | 88.63200 | 34359 ft | 425 kts | 260° |
| 2026-04-28 13:53 | 55.63743 | 88.53026 | 34363 ft | 426 kts | 260° |
| 2026-04-28 13:54 | 55.62297 | 88.42841 | 34373 ft | 427 kts | 260° |
| 2026-04-28 13:54 | 55.60873 | 88.32709 | 34376 ft | 426 kts | 260° |
| 2026-04-28 13:55 | 55.59432 | 88.22519 | 34356 ft | 428 kts | 261° |
| 2026-04-28 13:55 | 55.57976 | 88.12321 | 34366 ft | 429 kts | 261° |
| 2026-04-28 13:56 | 55.56501 | 88.02100 | 34369 ft | 429 kts | 261° |
| 2026-04-28 13:56 | 55.55026 | 87.91886 | 34377 ft | 429 kts | 261° |
| 2026-04-28 13:57 | 55.53542 | 87.81668 | 34384 ft | 430 kts | 261° |
| 2026-04-28 13:57 | 55.52040 | 87.71440 | 34366 ft | 430 kts | 261° |
| 2026-04-28 13:58 | 55.50516 | 87.61235 | 34380 ft | 430 kts | 261° |
| 2026-04-28 13:58 | 55.48998 | 87.51038 | 34381 ft | 430 kts | 261° |
| 2026-04-28 13:59 | 55.47477 | 87.40825 | 34387 ft | 430 kts | 261° |
| 2026-04-28 13:59 | 55.45933 | 87.30636 | 34393 ft | 430 kts | 260° |
| 2026-04-28 14:00 | 55.44377 | 87.20456 | 34366 ft | 431 kts | 261° |
| 2026-04-28 14:00 | 55.42817 | 87.10259 | 34383 ft | 431 kts | 261° |
| 2026-04-28 14:01 | 55.41258 | 87.00123 | 34388 ft | 432 kts | 261° |
| 2026-04-28 14:01 | 55.39676 | 86.89929 | 34393 ft | 432 kts | 261° |
| 2026-04-28 14:02 | 55.38080 | 86.79739 | 34393 ft | 432 kts | 261° |
| 2026-04-28 14:02 | 55.36481 | 86.69551 | 34396 ft | 432 kts | 261° |
| 2026-04-28 14:03 | 55.34875 | 86.59346 | 34393 ft | 434 kts | 261° |
| 2026-04-28 14:03 | 55.33253 | 86.49138 | 34399 ft | 434 kts | 261° |
| 2026-04-28 14:04 | 55.31616 | 86.38939 | 34403 ft | 434 kts | 261° |
| 2026-04-28 14:04 | 55.29970 | 86.28748 | 34404 ft | 434 kts | 261° |
| 2026-04-28 14:05 | 55.28329 | 86.18578 | 34393 ft | 433 kts | 261° |
| 2026-04-28 14:05 | 55.26948 | 86.08374 | 34374 ft | 423 kts | 272° |
| 2026-04-28 14:06 | 55.26467 | 85.98118 | 34161 ft | 427 kts | 273° |
| 2026-04-28 14:06 | 55.26225 | 85.92849 | 33886 ft | 438 kts | 273° |
| 2026-04-28 14:06 | 55.25975 | 85.87501 | 33564 ft | 441 kts | 273° |
| 2026-04-28 14:07 | 55.25712 | 85.82150 | 33040 ft | 440 kts | 273° |
| 2026-04-28 14:07 | 55.25440 | 85.76770 | 32507 ft | 445 kts | 273° |
| 2026-04-28 14:07 | 55.25156 | 85.71422 | 31723 ft | 448 kts | 272° |
| 2026-04-28 14:07 | 55.24822 | 85.65958 | 31205 ft | 443 kts | 272° |
| 2026-04-28 14:08 | 55.24465 | 85.60684 | 30699 ft | 439 kts | 272° |
| 2026-04-28 14:08 | 55.24094 | 85.55407 | 30147 ft | 434 kts | 272° |
| 2026-04-28 14:08 | 55.23726 | 85.50181 | 29674 ft | 430 kts | 272° |
| 2026-04-28 14:08 | 55.23480 | 85.46682 | 29358 ft | 428 kts | 272° |
| 2026-04-28 14:09 | 55.23010 | 85.39808 | 28703 ft | 437 kts | 272° |
| 2026-04-28 14:09 | 55.22660 | 85.34407 | 28042 ft | 452 kts | 272° |
| 2026-04-28 14:09 | 55.22298 | 85.28916 | 27392 ft | 453 kts | 271° |
| 2026-04-28 14:09 | 55.21924 | 85.23459 | 26766 ft | 451 kts | 271° |
| 2026-04-28 14:10 | 55.21541 | 85.18034 | 26150 ft | 447 kts | 271° |
| 2026-04-28 14:10 | 55.21157 | 85.12647 | 25553 ft | 443 kts | 271° |
| 2026-04-28 14:10 | 55.20775 | 85.07305 | 24961 ft | 439 kts | 270° |
| 2026-04-28 14:10 | 55.20397 | 85.02026 | 24347 ft | 435 kts | 270° |
| 2026-04-28 14:11 | 55.20021 | 84.96797 | 23738 ft | 431 kts | 270° |
| 2026-04-28 14:11 | 55.19648 | 84.91607 | 23069 ft | 427 kts | 270° |
| 2026-04-28 14:11 | 55.19280 | 84.86476 | 22413 ft | 423 kts | 270° |
| 2026-04-28 14:11 | 55.18915 | 84.81392 | 21771 ft | 419 kts | 269° |
| 2026-04-28 14:12 | 55.18551 | 84.76355 | 21144 ft | 415 kts | 269° |
| 2026-04-28 14:12 | 55.18190 | 84.71421 | 20536 ft | 412 kts | 269° |
| 2026-04-28 14:12 | 55.17827 | 84.66467 | 19930 ft | 408 kts | 269° |
| 2026-04-28 14:12 | 55.17466 | 84.61564 | 19347 ft | 405 kts | 269° |
| 2026-04-28 14:13 | 55.17105 | 84.56709 | 18762 ft | 402 kts | 269° |
| 2026-04-28 14:13 | 55.16860 | 84.53441 | 18330 ft | 399 kts | 269° |
| 2026-04-28 14:13 | 55.16500 | 84.48648 | 17648 ft | 396 kts | 268° |
| 2026-04-28 14:13 | 55.16145 | 84.43953 | 17007 ft | 393 kts | 268° |
| 2026-04-28 14:14 | 55.15786 | 84.39237 | 16381 ft | 390 kts | 268° |
| 2026-04-28 14:14 | 55.15429 | 84.34557 | 15767 ft | 387 kts | 267° |
| 2026-04-28 14:14 | 55.15075 | 84.29905 | 15158 ft | 385 kts | 267° |
| 2026-04-28 14:14 | 55.14723 | 84.25287 | 14575 ft | 382 kts | 267° |
| 2026-04-28 14:15 | 55.14369 | 84.20700 | 13974 ft | 380 kts | 266° |
| 2026-04-28 14:15 | 55.14013 | 84.16137 | 13317 ft | 377 kts | 266° |
| 2026-04-28 14:15 | 55.13660 | 84.11618 | 12683 ft | 374 kts | 266° |
| 2026-04-28 14:15 | 55.13307 | 84.07137 | 12062 ft | 371 kts | 266° |
| 2026-04-28 14:16 | 55.12954 | 84.02696 | 11453 ft | 367 kts | 265° |
| 2026-04-28 14:16 | 55.12603 | 83.98298 | 10854 ft | 364 kts | 265° |
| 2026-04-28 14:16 | 55.12254 | 83.93939 | 10264 ft | 360 kts | 265° |
| 2026-04-28 14:16 | 55.11909 | 83.89631 | 9615 ft | 356 kts | 265° |
| 2026-04-28 14:17 | 55.11571 | 83.85382 | 8983 ft | 352 kts | 265° |
| 2026-04-28 14:17 | 55.11231 | 83.81175 | 8359 ft | 348 kts | 264° |
| 2026-04-28 14:17 | 55.10892 | 83.77032 | 7998 ft | 337 kts | 264° |
| 2026-04-28 14:17 | 55.10567 | 83.73085 | 7866 ft | 320 kts | 264° |
| 2026-04-28 14:18 | 55.10257 | 83.69331 | 7740 ft | 306 kts | 264° |
| 2026-04-28 14:18 | 55.09960 | 83.65742 | 7607 ft | 292 kts | 264° |
| 2026-04-28 14:18 | 55.09676 | 83.62304 | 7490 ft | 279 kts | 264° |
| 2026-04-28 14:18 | 55.09403 | 83.58987 | 7360 ft | 274 kts | 264° |
| 2026-04-28 14:19 | 55.09133 | 83.55700 | 7237 ft | 273 kts | 264° |
| 2026-04-28 14:19 | 55.08861 | 83.52422 | 7114 ft | 272 kts | 264° |
| 2026-04-28 14:19 | 55.08589 | 83.49157 | 6991 ft | 272 kts | 264° |
| 2026-04-28 14:19 | 55.08315 | 83.45895 | 6868 ft | 271 kts | 264° |
| 2026-04-28 14:20 | 55.08040 | 83.42634 | 6740 ft | 271 kts | 264° |
| 2026-04-28 14:20 | 55.07765 | 83.39387 | 6599 ft | 270 kts | 263° |
| 2026-04-28 14:20 | 55.07489 | 83.36146 | 6467 ft | 270 kts | 263° |
| 2026-04-28 14:20 | 55.07213 | 83.32912 | 6338 ft | 269 kts | 263° |
| 2026-04-28 14:21 | 55.06938 | 83.29690 | 6125 ft | 267 kts | 263° |
| 2026-04-28 14:21 | 55.06667 | 83.26504 | 5731 ft | 264 kts | 263° |
| 2026-04-28 14:21 | 55.06400 | 83.23384 | 5333 ft | 262 kts | 263° |
| 2026-04-28 14:21 | 55.06131 | 83.20251 | 4968 ft | 258 kts | 262° |
| 2026-04-28 14:22 | 55.05850 | 83.17207 | 4612 ft | 254 kts | 262° |
| 2026-04-28 14:22 | 55.05576 | 83.14171 | 4282 ft | 250 kts | 262° |
| 2026-04-28 14:22 | 55.05320 | 83.11215 | 4026 ft | 243 kts | 262° |
| 2026-04-28 14:22 | 55.05074 | 83.08365 | 3768 ft | 231 kts | 262° |
| 2026-04-28 14:23 | 55.04836 | 83.05617 | 3519 ft | 228 kts | 262° |
| 2026-04-28 14:23 | 55.04600 | 83.02898 | 3261 ft | 225 kts | 262° |
| 2026-04-28 14:23 | 55.04365 | 83.00205 | 2992 ft | 224 kts | 262° |
| 2026-04-28 14:23 | 55.04134 | 82.97562 | 2849 ft | 217 kts | 262° |
| 2026-04-28 14:24 | 55.03910 | 82.95007 | 2725 ft | 210 kts | 262° |
| 2026-04-28 14:24 | 55.03692 | 82.92528 | 2609 ft | 202 kts | 262° |
| 2026-04-28 14:24 | 55.03487 | 82.90199 | 2475 ft | 188 kts | 262° |
| 2026-04-28 14:24 | 55.03290 | 82.87968 | 2213 ft | 185 kts | 262° |
| 2026-04-28 14:25 | 55.03100 | 82.85813 | 2081 ft | 174 kts | 262° |
| 2026-04-28 14:25 | 55.02921 | 82.83795 | 2004 ft | 162 kts | 262° |
| 2026-04-28 14:25 | 55.02754 | 82.81921 | 1939 ft | 153 kts | 262° |
| 2026-04-28 14:25 | 55.02594 | 82.80117 | 1807 ft | 148 kts | 262° |
| 2026-04-28 14:26 | 55.02437 | 82.78357 | 1622 ft | 144 kts | 262° |
| 2026-04-28 14:26 | 55.02286 | 82.76660 | 1434 ft | 140 kts | 262° |
| 2026-04-28 14:26 | 55.02136 | 82.74986 | 1251 ft | 139 kts | 261° |
| 2026-04-28 14:26 | 55.01984 | 82.73330 | 1036 ft | 138 kts | 263° |
| 2026-04-28 14:27 | 55.01850 | 82.71675 | 844 ft | 137 kts | 263° |
| 2026-04-28 14:27 | 55.01695 | 82.70037 | 669 ft | 137 kts | 262° |
| 2026-04-28 14:27 | 55.01548 | 82.68405 | 489 ft | 136 kts | 262° |
| 2026-04-28 14:27 | 55.01402 | 82.66802 | 376 ft | 126 kts | 261° |
| 2026-04-28 14:28 | 55.01291 | 82.65576 | 373 ft | 78 kts | 261° |
| 2026-04-28 14:28 | 55.01235 | 82.65080 | 373 ft | 14 kts | 224° |
| 2026-04-28 14:28 | 55.01196 | 82.65055 | 372 ft | 6 kts | 180° |
| 2026-04-28 14:28 | 55.01148 | 82.65067 | 372 ft | 6 kts | 171° |
| 2026-04-28 14:29 | 55.01110 | 82.65078 | 373 ft | 5 kts | 171° |
| 2026-04-28 14:29 | 55.01079 | 82.65087 | 373 ft | 4 kts | 171° |
| 2026-04-28 14:29 | 55.01013 | 82.65104 | 373 ft | 12 kts | 171° |
| 2026-04-28 14:29 | 55.00937 | 82.65124 | 373 ft | 10 kts | 171° |
| 2026-04-28 14:30 | 55.00886 | 82.65157 | 373 ft | 9 kts | 121° |
| 2026-04-28 14:30 | 55.00886 | 82.65305 | 373 ft | 13 kts | 85° |
| 2026-04-28 14:30 | 55.00902 | 82.65484 | 373 ft | 18 kts | 81° |
| 2026-04-28 14:30 | 55.00923 | 82.65720 | 373 ft | 21 kts | 81° |
| 2026-04-28 14:31 | 55.00946 | 82.65981 | 373 ft | 16 kts | 81° |
| 2026-04-28 14:31 | 55.00953 | 82.66052 | 373 ft | 0 kts | 81° |
| 2026-04-28 14:32 | 55.00955 | 82.66063 | 373 ft | 2 kts | 75° |
| 2026-04-28 14:32 | 55.00976 | 82.66166 | 373 ft | 7 kts | 73° |
| 2026-04-28 14:32 | 55.00946 | 82.66200 | 373 ft | 5 kts | 172° |
| 2026-04-28 14:33 | 55.00925 | 82.66204 | 373 ft | 0 kts | 174° |